createdAt,value
2022-11-09T00:01:36.554Z,99.90
2022-11-09T00:04:07.699Z,99.90
2022-11-09T00:06:36.772Z,99.90
2022-11-09T00:09:08.127Z,99.90
2022-11-09T00:11:38.298Z,99.90
2022-11-09T00:14:06.743Z,99.90
2022-11-09T00:16:35.029Z,99.90
2022-11-09T00:19:03.299Z,99.90
2022-11-09T00:21:32.875Z,99.90
2022-11-09T00:24:01.202Z,99.90
2022-11-09T00:26:29.477Z,99.90
2022-11-09T00:28:57.717Z,99.90
2022-11-09T00:31:26.163Z,99.90
2022-11-09T00:33:56.063Z,99.90
2022-11-09T00:36:25.996Z,99.90
2022-11-09T00:38:57.206Z,99.90
2022-11-09T00:41:27.857Z,99.90
2022-11-09T00:43:57.228Z,99.90
2022-11-09T00:46:25.751Z,99.90
2022-11-09T00:48:55.919Z,99.90
2022-11-09T00:51:24.323Z,99.90
2022-11-09T00:53:54.651Z,99.90
2022-11-09T00:56:24.836Z,99.90
2022-11-09T00:58:55.809Z,99.90
2022-11-09T01:01:25.561Z,99.90
2022-11-09T01:03:54.181Z,99.90
2022-11-09T01:06:24.030Z,99.90
2022-11-09T01:08:52.759Z,99.90
2022-11-09T01:11:22.883Z,99.90
2022-11-09T01:13:55.670Z,99.90
2022-11-09T01:16:25.123Z,99.90
2022-11-09T01:18:57.917Z,99.90
2022-11-09T01:21:27.528Z,99.90
2022-11-09T01:23:56.475Z,99.90
2022-11-09T01:26:25.078Z,99.90
2022-11-09T01:28:54.704Z,99.90
2022-11-09T01:31:23.749Z,99.90
2022-11-09T01:33:52.147Z,99.90
2022-11-09T01:36:22.358Z,99.90
2022-11-09T01:38:51.140Z,99.90
2022-11-09T01:41:22.159Z,99.90
2022-11-09T01:44:11.789Z,99.90
2022-11-09T01:46:49.247Z,99.90
2022-11-09T01:49:30.246Z,99.90
2022-11-09T01:52:01.751Z,99.90
2022-11-09T01:54:36.129Z,99.90
2022-11-09T01:57:07.488Z,99.90
2022-11-09T01:59:42.435Z,99.90
2022-11-09T02:02:11.723Z,99.90
2022-11-09T02:04:48.464Z,99.90
2022-11-09T02:07:16.987Z,99.90
2022-11-09T02:09:52.592Z,99.90
2022-11-09T02:12:23.216Z,99.90
2022-11-09T02:14:54.582Z,99.90
2022-11-09T02:17:23.322Z,99.90
2022-11-09T02:19:52.150Z,99.90
2022-11-09T02:22:23.898Z,99.90
2022-11-09T02:24:56.161Z,99.90
2022-11-09T02:27:25.715Z,99.90
2022-11-09T02:29:55.631Z,99.90
2022-11-09T02:32:28.560Z,99.90
2022-11-09T02:34:58.632Z,99.90
2022-11-09T02:37:30.094Z,99.90
2022-11-09T02:40:01.374Z,99.90
2022-11-09T02:42:30.161Z,99.90
2022-11-09T02:45:00.403Z,99.90
2022-11-09T02:47:28.922Z,99.90
2022-11-09T02:49:57.940Z,99.90
2022-11-09T02:52:29.065Z,99.90
2022-11-09T02:54:58.728Z,99.90
2022-11-09T02:57:27.003Z,99.90
2022-11-09T02:59:57.474Z,99.90
2022-11-09T03:02:26.008Z,99.90
2022-11-09T03:04:54.301Z,99.90
2022-11-09T03:07:22.925Z,99.90
2022-11-09T03:09:53.914Z,99.90
2022-11-09T03:12:32.934Z,99.90
2022-11-09T03:15:11.307Z,99.90
2022-11-09T03:17:43.844Z,99.90
2022-11-09T03:20:14.148Z,99.90
2022-11-09T03:22:43.817Z,99.90
2022-11-09T03:25:13.782Z,99.90
2022-11-09T03:27:42.303Z,99.90
2022-11-09T03:30:11.553Z,99.90
2022-11-09T03:32:40.180Z,99.90
2022-11-09T03:35:09.908Z,99.90
2022-11-09T03:37:39.479Z,99.90
2022-11-09T03:40:08.994Z,99.90
2022-11-09T03:42:43.983Z,99.90
2022-11-09T03:45:12.432Z,99.90
2022-11-09T03:47:42.039Z,99.90
2022-11-09T03:50:11.233Z,99.90
2022-11-09T03:52:39.816Z,99.90
2022-11-09T03:55:10.246Z,99.90
2022-11-09T03:57:40.005Z,99.90
2022-11-09T04:00:09.779Z,99.90
2022-11-09T04:02:40.821Z,99.90
2022-11-09T04:05:10.306Z,99.90
2022-11-09T04:07:38.739Z,99.90
2022-11-09T04:10:08.759Z,99.90
2022-11-09T04:12:38.791Z,99.90
2022-11-09T04:15:07.855Z,99.90
2022-11-09T04:17:36.115Z,99.90
2022-11-09T04:20:05.146Z,99.90
2022-11-09T04:22:33.420Z,99.90
2022-11-09T04:25:01.693Z,99.90
2022-11-09T04:27:30.675Z,99.90
2022-11-09T04:30:00.258Z,99.90
2022-11-09T04:32:28.501Z,99.90
2022-11-09T04:34:56.675Z,99.90
2022-11-09T04:37:24.869Z,99.90
2022-11-09T04:39:53.125Z,99.90
2022-11-09T04:42:21.425Z,99.90
2022-11-09T04:44:49.700Z,99.90
2022-11-09T04:47:19.318Z,99.90
2022-11-09T04:49:47.593Z,99.90
2022-11-09T04:52:15.780Z,99.90
2022-11-09T04:54:44.099Z,99.90
2022-11-09T04:57:12.424Z,99.90
2022-11-09T04:59:40.700Z,99.90
2022-11-09T05:02:08.907Z,99.90
2022-11-09T05:04:38.501Z,99.90
2022-11-09T05:07:06.836Z,99.90
2022-11-09T05:09:35.121Z,99.90
2022-11-09T05:12:03.402Z,99.90
2022-11-09T05:14:31.654Z,99.90
2022-11-09T05:16:59.826Z,99.90
2022-11-09T05:19:28.030Z,99.90
2022-11-09T05:22:17.567Z,99.90
2022-11-09T05:24:44.860Z,99.90
2022-11-09T05:27:13.131Z,99.90
2022-11-09T05:29:41.291Z,99.90
2022-11-09T05:32:09.548Z,99.90
2022-11-09T05:34:37.788Z,99.90
2022-11-09T05:37:07.408Z,99.90
2022-11-09T05:39:35.611Z,99.90
2022-11-09T05:42:03.846Z,99.90
2022-11-09T05:44:32.200Z,99.90
2022-11-09T05:47:00.479Z,99.90
2022-11-09T05:49:28.783Z,99.90
2022-11-09T05:51:56.963Z,99.90
2022-11-09T05:54:26.589Z,99.90
2022-11-09T05:56:54.766Z,99.90
2022-11-09T05:59:23.014Z,99.90
2022-11-09T06:01:51.341Z,99.90
2022-11-09T06:04:19.657Z,99.90
2022-11-09T06:06:48.056Z,99.90
2022-11-09T06:09:16.329Z,99.90
2022-11-09T06:11:45.951Z,99.90
2022-11-09T06:14:15.416Z,99.90
2022-11-09T06:16:43.723Z,99.90
2022-11-09T06:19:12.001Z,99.90
2022-11-09T06:21:40.130Z,99.90
2022-11-09T06:24:08.857Z,99.90
2022-11-09T06:26:37.133Z,99.90
2022-11-09T06:29:06.780Z,99.90
2022-11-09T06:31:34.983Z,99.90
2022-11-09T06:34:03.324Z,99.90
2022-11-09T06:36:31.579Z,99.90
2022-11-09T06:38:59.820Z,99.90
2022-11-09T06:41:28.087Z,99.90
2022-11-09T06:43:56.225Z,99.90
2022-11-09T06:46:25.888Z,99.90
2022-11-09T06:48:54.747Z,99.90
2022-11-09T06:51:22.958Z,99.90
2022-11-09T06:53:51.443Z,99.90
2022-11-09T06:56:19.703Z,99.90
2022-11-09T06:58:49.109Z,99.90
2022-11-09T07:01:19.067Z,99.90
2022-11-09T07:03:48.782Z,99.90
2022-11-09T07:06:17.085Z,99.90
2022-11-09T07:08:45.192Z,99.90
2022-11-09T07:11:16.162Z,99.90
2022-11-09T07:13:44.584Z,99.90
2022-11-09T07:16:17.100Z,99.90
2022-11-09T07:18:46.321Z,99.90
2022-11-09T07:21:16.125Z,99.90
2022-11-09T07:23:44.501Z,99.90
2022-11-09T07:26:12.806Z,99.90
2022-11-09T07:28:41.051Z,99.90
2022-11-09T07:31:09.918Z,99.90
2022-11-09T07:33:38.546Z,99.90
2022-11-09T07:36:07.802Z,99.90
2022-11-09T07:38:37.367Z,99.90
2022-11-09T07:41:05.660Z,99.90
2022-11-09T07:43:33.968Z,99.90
2022-11-09T07:46:05.238Z,99.90
2022-11-09T07:48:34.110Z,99.90
2022-11-09T07:51:02.863Z,99.90
2022-11-09T07:53:31.222Z,99.90
2022-11-09T07:56:02.286Z,99.90
2022-11-09T07:58:31.057Z,99.90
2022-11-09T08:00:59.548Z,99.90
2022-11-09T08:03:27.745Z,99.90
2022-11-09T08:05:58.445Z,99.90
2022-11-09T08:08:26.981Z,99.90
2022-11-09T08:10:58.071Z,99.90
2022-11-09T08:13:27.677Z,99.90
2022-11-09T08:15:55.974Z,99.90
2022-11-09T08:18:24.863Z,99.90
2022-11-09T08:20:53.321Z,99.90
2022-11-09T08:23:21.975Z,99.90
2022-11-09T08:25:51.490Z,99.90
2022-11-09T08:28:20.200Z,99.90
2022-11-09T08:30:56.917Z,99.90
2022-11-09T08:33:25.919Z,99.90
2022-11-09T08:35:54.653Z,99.90
2022-11-09T08:38:23.662Z,99.90
2022-11-09T08:40:57.052Z,99.90
2022-11-09T08:43:25.396Z,99.90
2022-11-09T08:45:55.038Z,99.90
2022-11-09T08:48:23.372Z,99.90
2022-11-09T08:50:53.623Z,99.90
2022-11-09T08:53:22.284Z,99.90
2022-11-09T08:55:50.961Z,99.90
2022-11-09T08:58:20.225Z,99.90
2022-11-09T09:00:48.648Z,99.90
2022-11-09T09:03:18.584Z,99.90
2022-11-09T09:05:46.942Z,99.90
2022-11-09T09:08:16.367Z,99.90
2022-11-09T09:10:44.705Z,99.90
2022-11-09T09:13:12.904Z,99.90
2022-11-09T09:15:41.239Z,99.90
2022-11-09T09:18:09.434Z,99.90
2022-11-09T09:20:39.081Z,99.90
2022-11-09T09:23:07.345Z,99.90
2022-11-09T09:25:35.598Z,99.90
2022-11-09T09:28:03.749Z,99.90
2022-11-09T09:30:32.095Z,99.90
2022-11-09T09:33:01.143Z,99.90
2022-11-09T09:35:30.040Z,99.90
2022-11-09T09:37:59.672Z,99.90
2022-11-09T09:40:34.531Z,99.90
2022-11-09T09:43:02.935Z,99.90
2022-11-09T09:45:34.610Z,99.90
2022-11-09T09:48:13.114Z,99.90
2022-11-09T09:50:47.918Z,99.90
2022-11-09T09:53:27.352Z,99.90
2022-11-09T09:55:58.361Z,99.90
2022-11-09T09:58:28.858Z,99.90
2022-11-09T10:01:03.250Z,99.90
2022-11-09T10:03:32.145Z,99.90
2022-11-09T10:06:09.486Z,99.90
2022-11-09T10:08:48.293Z,99.90
2022-11-09T10:11:28.941Z,99.90
2022-11-09T10:14:15.142Z,99.90
2022-11-09T10:16:49.128Z,99.90
2022-11-09T10:19:35.177Z,99.90
2022-11-09T10:22:13.220Z,99.90
2022-11-09T10:25:20.807Z,99.90
2022-11-09T10:27:46.839Z,99.90
2022-11-09T10:30:17.672Z,99.90
2022-11-09T10:32:49.674Z,99.90
2022-11-09T10:35:22.209Z,99.90
2022-11-09T10:37:52.338Z,99.90
2022-11-09T10:40:25.096Z,99.90
2022-11-09T10:43:14.125Z,99.90
2022-11-09T10:46:04.986Z,99.90
2022-11-09T10:48:53.415Z,99.90
2022-11-09T10:51:42.690Z,99.90
2022-11-09T10:54:32.525Z,99.90
2022-11-09T10:57:22.224Z,99.90
2022-11-09T11:00:15.922Z,99.90
2022-11-09T11:03:12.534Z,99.90
2022-11-09T11:06:01.752Z,99.90
2022-11-09T11:08:50.749Z,99.90
2022-11-09T11:11:38.978Z,99.90
2022-11-09T11:14:32.984Z,99.90
2022-11-09T11:17:24.432Z,99.90
2022-11-09T11:20:31.742Z,99.90
2022-11-09T11:23:21.592Z,99.90
2022-11-09T11:26:35.615Z,99.90
2022-11-09T11:29:36.852Z,99.90
2022-11-09T11:32:25.532Z,99.70
2022-11-09T11:35:17.328Z,99.10
2022-11-09T11:38:17.753Z,99.70
2022-11-09T11:41:20.793Z,99.50
2022-11-09T11:44:16.857Z,99.60
2022-11-09T11:47:12.231Z,99.20
2022-11-09T11:50:22.947Z,99.70
2022-11-09T11:53:18.260Z,99.50
2022-11-09T11:56:22.287Z,98.80
2022-11-09T11:59:34.485Z,98.90
2022-11-09T12:02:54.627Z,99.00
2022-11-09T12:06:00.039Z,99.20
2022-11-09T12:09:00.243Z,99.20
2022-11-09T12:11:56.315Z,99.10
2022-11-09T12:14:55.870Z,99.30
2022-11-09T12:17:52.366Z,99.20
2022-11-09T12:20:46.435Z,98.90
2022-11-09T12:23:44.611Z,98.80
2022-11-09T12:26:47.717Z,98.80
2022-11-09T12:29:49.668Z,99.00
2022-11-09T12:32:43.197Z,98.70
2022-11-09T12:35:37.903Z,99.10
2022-11-09T12:38:29.014Z,99.00
2022-11-09T12:41:19.337Z,98.90
2022-11-09T12:44:17.102Z,99.00
2022-11-09T12:47:09.134Z,99.20
2022-11-09T12:49:56.503Z,98.50
2022-11-09T12:52:46.886Z,98.50
2022-11-09T12:55:43.557Z,98.60
2022-11-09T12:58:32.731Z,98.70
2022-11-09T13:01:48.705Z,99.00
2022-11-09T13:04:35.686Z,99.40
2022-11-09T13:07:49.509Z,99.60
2022-11-09T13:10:38.338Z,99.50
2022-11-09T13:13:26.199Z,99.70
2022-11-09T13:16:33.290Z,99.90
2022-11-09T13:19:54.105Z,99.90
2022-11-09T13:23:02.048Z,99.90
2022-11-09T13:25:52.928Z,99.90
2022-11-09T13:29:13.118Z,99.90
2022-11-09T13:32:03.583Z,99.80
2022-11-09T13:34:52.380Z,99.40
2022-11-09T13:37:55.135Z,99.10
2022-11-09T13:40:48.370Z,98.60
2022-11-09T13:43:38.520Z,98.80
2022-11-09T13:46:27.489Z,98.70
2022-11-09T13:49:48.795Z,98.30
2022-11-09T13:52:49.118Z,98.30
2022-11-09T13:55:40.524Z,98.70
2022-11-09T13:58:33.760Z,98.70
2022-11-09T14:01:27.932Z,99.10
2022-11-09T14:04:26.982Z,99.10
2022-11-09T14:07:23.947Z,99.70
2022-11-09T14:10:43.388Z,99.70
2022-11-09T14:14:04.236Z,99.90
2022-11-09T14:17:01.019Z,99.90
2022-11-09T14:19:57.560Z,99.90
2022-11-09T14:22:44.364Z,99.90
2022-11-09T14:25:35.942Z,99.90
2022-11-09T14:28:24.696Z,99.90
2022-11-09T14:31:25.330Z,99.70
2022-11-09T14:34:16.795Z,99.70
2022-11-09T14:37:06.378Z,99.90
2022-11-09T14:39:54.481Z,99.80
2022-11-09T14:42:46.081Z,99.90
2022-11-09T14:45:33.484Z,99.90
2022-11-09T14:48:23.650Z,99.90
2022-11-09T14:51:14.694Z,99.70
2022-11-09T14:54:03.626Z,99.60
2022-11-09T14:56:50.745Z,99.50
2022-11-09T14:59:37.898Z,99.50
2022-11-09T15:02:25.168Z,99.30
2022-11-09T15:05:38.961Z,99.30
2022-11-09T15:08:26.915Z,99.40
2022-11-09T15:11:13.614Z,99.70
2022-11-09T15:14:01.144Z,99.60
2022-11-09T15:16:49.149Z,99.90
2022-11-09T15:19:39.267Z,99.90
2022-11-09T15:22:53.043Z,99.90
2022-11-09T15:25:56.533Z,99.90
2022-11-09T15:28:49.032Z,99.90
2022-11-09T15:31:35.572Z,99.90
2022-11-09T15:34:24.464Z,99.90
2022-11-09T15:37:24.440Z,99.90
2022-11-09T15:40:15.480Z,99.90
2022-11-09T15:43:02.252Z,99.90
2022-11-09T15:45:49.552Z,99.90
2022-11-09T15:48:38.530Z,99.90
2022-11-09T15:51:27.691Z,99.90
2022-11-09T15:54:15.459Z,99.90
2022-11-09T15:57:03.665Z,99.90
2022-11-09T15:59:51.937Z,99.90
2022-11-09T16:02:38.819Z,99.90
2022-11-09T16:05:27.766Z,99.90
2022-11-09T16:08:14.985Z,99.90
2022-11-09T16:11:05.047Z,99.90
2022-11-09T16:13:53.059Z,99.90
2022-11-09T16:16:39.724Z,99.90
2022-11-09T16:19:26.846Z,99.90
2022-11-09T16:22:13.744Z,99.90
2022-11-09T16:25:00.803Z,99.90
2022-11-09T16:27:50.542Z,99.90
2022-11-09T16:30:44.076Z,99.90
2022-11-09T16:33:33.431Z,99.90
2022-11-09T16:36:23.098Z,99.90
2022-11-09T16:39:12.814Z,99.90
2022-11-09T16:42:02.402Z,99.90
2022-11-09T16:44:50.638Z,99.90
2022-11-09T16:47:44.851Z,99.90
2022-11-09T16:50:31.791Z,99.90
2022-11-09T16:53:21.648Z,99.90
2022-11-09T16:56:12.324Z,99.90
2022-11-09T16:58:59.201Z,99.90
2022-11-09T17:01:51.507Z,99.90
2022-11-09T17:04:39.685Z,99.90
2022-11-09T17:07:26.735Z,99.90
2022-11-09T17:10:13.734Z,99.90
2022-11-09T17:13:00.641Z,99.90
2022-11-09T17:15:50.324Z,99.90
2022-11-09T17:18:38.629Z,99.90
2022-11-09T17:21:28.336Z,99.90
2022-11-09T17:24:15.282Z,99.90
2022-11-09T17:27:03.527Z,99.90
2022-11-09T17:29:50.555Z,99.90
2022-11-09T17:32:38.077Z,99.90
2022-11-09T17:35:25.360Z,99.90
2022-11-09T17:38:14.150Z,99.90
2022-11-09T17:41:05.732Z,99.90
2022-11-09T17:43:52.394Z,99.90
2022-11-09T17:46:39.084Z,99.90
2022-11-09T17:49:26.210Z,99.90
2022-11-09T17:52:12.834Z,99.90
2022-11-09T17:55:01.182Z,99.90
2022-11-09T17:57:48.621Z,99.90
2022-11-09T18:00:35.495Z,99.90
2022-11-09T18:03:22.953Z,99.90
2022-11-09T18:06:12.627Z,99.90
2022-11-09T18:09:34.465Z,99.90
2022-11-09T18:12:08.071Z,99.90
2022-11-09T18:14:54.824Z,99.90
2022-11-09T18:17:41.732Z,99.90
2022-11-09T18:20:28.454Z,99.90
2022-11-09T18:23:15.531Z,99.90
2022-11-09T18:26:02.369Z,99.90
2022-11-09T18:28:50.863Z,99.90
2022-11-09T18:31:38.067Z,99.90
2022-11-09T18:34:24.650Z,99.90
2022-11-09T18:37:11.891Z,99.90
2022-11-09T18:39:58.548Z,99.90
2022-11-09T18:42:45.315Z,99.90
2022-11-09T18:45:34.651Z,99.90
2022-11-09T18:48:22.622Z,99.90
2022-11-09T18:51:11.098Z,99.90
2022-11-09T18:53:58.156Z,99.90
2022-11-09T18:56:46.106Z,99.90
2022-11-09T18:59:34.433Z,99.90
2022-11-09T19:02:22.758Z,99.90
2022-11-09T19:05:11.254Z,99.90
2022-11-09T19:07:58.892Z,99.90
2022-11-09T19:10:45.501Z,99.90
2022-11-09T19:13:32.523Z,99.90
2022-11-09T19:16:20.587Z,99.90
2022-11-09T19:19:12.870Z,99.90
2022-11-09T19:22:00.046Z,99.90
2022-11-09T19:24:48.265Z,99.90
2022-11-09T19:27:35.588Z,99.90
2022-11-09T19:30:25.440Z,99.90
2022-11-09T19:33:12.421Z,99.90
2022-11-09T19:36:28.620Z,99.90
2022-11-09T19:39:07.735Z,99.90
2022-11-09T19:41:54.806Z,99.90
2022-11-09T19:44:41.901Z,99.90
2022-11-09T19:47:28.915Z,99.90
2022-11-09T19:50:17.347Z,99.90
2022-11-09T19:53:07.720Z,99.90
2022-11-09T19:55:59.471Z,99.90
2022-11-09T19:58:49.601Z,99.90
2022-11-09T20:01:36.277Z,99.90
2022-11-09T20:04:23.261Z,99.90
2022-11-09T20:07:11.438Z,99.90
2022-11-09T20:10:00.589Z,99.90
2022-11-09T20:12:55.456Z,99.90
2022-11-09T20:15:42.256Z,99.90
2022-11-09T20:18:32.214Z,99.90
2022-11-09T20:21:19.107Z,99.90
2022-11-09T20:24:07.275Z,99.90
2022-11-09T20:26:55.253Z,99.90
2022-11-09T20:29:42.021Z,99.90
2022-11-09T20:32:29.195Z,99.90
2022-11-09T20:35:16.654Z,99.90
2022-11-09T20:38:03.679Z,99.90
2022-11-09T20:40:55.413Z,99.90
2022-11-09T20:43:43.647Z,99.90
2022-11-09T20:46:35.753Z,99.90
2022-11-09T20:49:23.983Z,99.90
2022-11-09T20:52:10.676Z,99.90
2022-11-09T20:54:57.355Z,99.90
2022-11-09T20:57:44.392Z,99.90
2022-11-09T21:00:33.306Z,99.90
2022-11-09T21:03:21.299Z,99.90
2022-11-09T21:06:09.103Z,99.90
2022-11-09T21:08:56.998Z,99.90
2022-11-09T21:11:57.753Z,99.90
2022-11-09T21:14:44.376Z,99.90
2022-11-09T21:17:33.314Z,99.90
2022-11-09T21:20:20.097Z,99.90
2022-11-09T21:23:24.253Z,99.90
2022-11-09T21:26:28.833Z,99.90
2022-11-09T21:29:36.748Z,99.90
2022-11-09T21:32:25.189Z,99.90
2022-11-09T21:35:13.395Z,99.90
2022-11-09T21:38:00.106Z,99.90
2022-11-09T21:40:47.772Z,99.90
2022-11-09T21:43:34.776Z,99.90
2022-11-09T21:46:21.823Z,99.90
2022-11-09T21:49:10.011Z,99.90
2022-11-09T21:51:58.514Z,99.90
2022-11-09T21:54:45.412Z,99.90
2022-11-09T21:57:32.631Z,99.90
2022-11-09T22:00:20.111Z,99.90
2022-11-09T22:03:08.090Z,99.90
2022-11-09T22:05:55.129Z,99.90
2022-11-09T22:08:44.695Z,99.90
2022-11-09T22:11:45.402Z,99.90
2022-11-09T22:14:49.568Z,99.90
2022-11-09T22:17:36.556Z,99.90
2022-11-09T22:20:41.357Z,99.90
2022-11-09T22:23:28.200Z,99.90
2022-11-09T22:26:17.941Z,99.90
2022-11-09T22:29:05.157Z,99.90
2022-11-09T22:31:51.667Z,99.90
2022-11-09T22:34:38.536Z,99.90
2022-11-09T22:37:25.516Z,99.90
2022-11-09T22:40:12.807Z,99.90
2022-11-09T22:43:02.044Z,99.90
2022-11-09T22:45:48.731Z,99.90
2022-11-09T22:48:36.895Z,99.90
2022-11-09T22:51:23.516Z,99.90
2022-11-09T22:54:10.243Z,99.90
2022-11-09T22:56:56.974Z,99.90
2022-11-09T22:59:45.359Z,99.90
2022-11-09T23:02:31.966Z,99.90
2022-11-09T23:05:18.562Z,99.90
2022-11-09T23:08:05.901Z,99.90
2022-11-09T23:10:56.003Z,99.90
2022-11-09T23:13:43.548Z,99.90
2022-11-09T23:16:31.670Z,99.90
2022-11-09T23:19:17.619Z,99.90
2022-11-09T23:22:04.160Z,99.90
2022-11-09T23:25:08.731Z,99.90
2022-11-09T23:27:56.134Z,99.90
2022-11-09T23:30:42.988Z,99.90
2022-11-09T23:33:31.371Z,99.90
2022-11-09T23:36:18.602Z,99.90
2022-11-09T23:39:05.756Z,99.90
2022-11-09T23:41:52.604Z,99.90
2022-11-09T23:44:39.527Z,99.90
2022-11-09T23:47:26.568Z,99.90
2022-11-09T23:50:14.906Z,99.90
2022-11-09T23:53:01.957Z,99.90
2022-11-09T23:55:49.132Z,99.90
2022-11-09T23:58:36.208Z,99.90
